createdAt,value
2023-07-18T00:04:11.206Z,8.80
2023-07-18T00:14:21.058Z,8.63
2023-07-18T00:19:25.684Z,9.80
2023-07-18T00:24:31.305Z,8.70
2023-07-18T00:29:35.284Z,9.68
2023-07-18T00:34:41.969Z,9.60
2023-07-18T00:39:48.329Z,8.43
2023-07-18T00:49:57.506Z,10.82
2023-07-18T00:55:03.389Z,10.93
2023-07-18T01:00:10.677Z,12.10
2023-07-18T01:05:18.887Z,12.02
2023-07-18T01:10:25.865Z,13.07
2023-07-18T01:15:32.362Z,13.80
2023-07-18T01:20:37.261Z,10.57
2023-07-18T01:25:43.007Z,10.32
2023-07-18T01:30:48.098Z,9.40
2023-07-18T01:35:53.253Z,7.65
2023-07-18T01:40:58.540Z,7.18
2023-07-18T01:46:03.048Z,7.70
2023-07-18T01:51:06.954Z,7.30
2023-07-18T01:56:12.362Z,6.97
2023-07-18T02:01:16.531Z,7.15
2023-07-18T02:06:20.449Z,7.80
2023-07-18T02:11:26.175Z,6.97
2023-07-18T02:16:30.089Z,6.47
2023-07-18T02:21:34.392Z,6.18
2023-07-18T02:26:39.675Z,5.72
2023-07-18T02:31:43.799Z,6.30
2023-07-18T02:36:48.807Z,6.97
2023-07-18T02:41:53.909Z,7.05
2023-07-18T02:46:57.889Z,7.20
2023-07-18T02:52:01.811Z,5.88
2023-07-18T02:57:07.897Z,6.43
2023-07-18T03:02:14.404Z,5.72
2023-07-18T03:07:21.781Z,6.03
2023-07-18T03:12:30.333Z,5.55
2023-07-18T03:17:37.980Z,6.10
2023-07-18T03:22:44.822Z,6.35
2023-07-18T03:27:53.754Z,6.60
2023-07-18T03:32:58.988Z,5.30
2023-07-18T03:38:04.804Z,5.28
2023-07-18T03:43:09.998Z,4.95
2023-07-18T03:48:15.370Z,6.03
2023-07-18T03:53:22.234Z,6.25
2023-07-18T03:58:31.026Z,5.93
2023-07-18T04:03:38.828Z,5.57
2023-07-18T04:08:45.817Z,5.65
2023-07-18T04:13:53.067Z,5.25
2023-07-18T04:18:59.921Z,4.60
2023-07-18T04:24:10.395Z,4.30
2023-07-18T04:29:20.766Z,4.68
2023-07-18T04:34:27.704Z,4.25
2023-07-18T04:39:34.700Z,4.13
2023-07-18T04:44:43.080Z,4.82
2023-07-18T04:49:50.694Z,5.35
2023-07-18T04:54:57.123Z,6.70
2023-07-18T05:00:06.958Z,7.32
2023-07-18T05:05:12.726Z,8.20
2023-07-18T05:10:20.089Z,8.65
2023-07-18T05:15:28.043Z,9.38
2023-07-18T05:20:34.984Z,9.55
2023-07-18T05:25:42.690Z,10.50
2023-07-18T05:30:55.275Z,10.13
2023-07-18T05:36:06.028Z,10.25
2023-07-18T05:41:13.278Z,9.40
2023-07-18T05:46:22.583Z,10.40
2023-07-18T05:51:29.773Z,9.32
2023-07-18T05:56:37.506Z,8.63
2023-07-18T06:01:47.286Z,15.73
2023-07-18T06:06:56.597Z,8.35
2023-07-18T06:12:04.733Z,8.10
2023-07-18T06:17:13.179Z,8.18
2023-07-18T06:22:20.217Z,7.35
2023-07-18T06:27:28.274Z,7.88
2023-07-18T06:32:35.344Z,7.75
2023-07-18T06:37:43.810Z,7.68
2023-07-18T06:42:51.161Z,7.50
2023-07-18T06:48:00.949Z,29.25
2023-07-18T06:53:08.523Z,7.22
2023-07-18T06:58:15.874Z,6.05
2023-07-18T07:03:24.565Z,7.03
2023-07-18T07:08:30.988Z,6.80
2023-07-18T07:13:41.955Z,8.07
2023-07-18T07:18:52.520Z,7.20
2023-07-18T07:24:00.108Z,5.70
2023-07-18T07:29:08.884Z,6.85
2023-07-18T07:34:17.497Z,5.50
2023-07-18T07:39:23.030Z,6.75
2023-07-18T07:44:27.781Z,6.45
2023-07-18T07:49:34.571Z,6.17
2023-07-18T07:54:41.360Z,6.47
2023-07-18T07:59:46.485Z,5.53
2023-07-18T08:04:54.007Z,5.57
2023-07-18T08:09:59.153Z,6.25
2023-07-18T08:15:03.310Z,5.80
2023-07-18T08:20:11.660Z,5.38
2023-07-18T08:25:15.792Z,5.65
2023-07-18T08:30:21.215Z,4.72
2023-07-18T08:35:26.765Z,5.55
2023-07-18T08:40:30.897Z,5.15
2023-07-18T08:45:38.821Z,4.63
2023-07-18T08:50:44.558Z,4.72
2023-07-18T08:55:49.355Z,4.93
2023-07-18T09:00:53.749Z,5.07
2023-07-18T09:06:03.383Z,5.10
2023-07-18T09:11:07.714Z,5.05
2023-07-18T09:16:16.327Z,6.70
2023-07-18T09:21:25.184Z,5.00
2023-07-18T09:26:30.196Z,4.55
2023-07-18T09:31:36.686Z,4.17
2023-07-18T09:36:57.587Z,4.25
2023-07-18T09:42:08.575Z,3.38
2023-07-18T09:47:18.256Z,4.00
2023-07-18T09:52:30.769Z,3.90
2023-07-18T09:57:39.683Z,3.20
2023-07-18T10:02:47.603Z,2.88
2023-07-18T10:07:56.188Z,3.70
2023-07-18T10:13:04.119Z,4.30
2023-07-18T10:18:19.983Z,3.63
2023-07-18T10:23:43.420Z,4.18
2023-07-18T10:28:56.562Z,3.95
2023-07-18T10:34:19.978Z,3.40
2023-07-18T10:39:42.532Z,3.53
2023-07-18T10:44:49.767Z,4.00
2023-07-18T10:49:57.153Z,3.40
2023-07-18T10:55:06.342Z,3.55
2023-07-18T11:00:12.916Z,2.75
2023-07-18T11:05:17.789Z,2.92
2023-07-18T11:10:23.372Z,3.53
2023-07-18T11:15:31.725Z,3.17
2023-07-18T11:20:38.778Z,2.90
2023-07-18T11:25:44.825Z,2.90
2023-07-18T11:30:50.498Z,6.82
2023-07-18T11:35:57.902Z,3.10
2023-07-18T11:41:07.404Z,2.97
2023-07-18T11:46:14.370Z,3.28
2023-07-18T11:51:21.875Z,3.13
2023-07-18T11:56:30.760Z,3.13
2023-07-18T12:01:39.031Z,2.70
2023-07-18T12:06:45.731Z,2.83
2023-07-18T12:11:55.862Z,3.10
2023-07-18T12:17:03.293Z,2.80
2023-07-18T12:22:08.353Z,2.40
2023-07-18T12:27:16.984Z,2.60
2023-07-18T12:32:28.335Z,3.63
2023-07-18T12:37:36.012Z,3.35
2023-07-18T12:42:44.398Z,2.50
2023-07-18T12:47:52.085Z,2.90
2023-07-18T12:52:59.106Z,2.45
2023-07-18T12:58:05.213Z,2.60
2023-07-18T13:03:09.407Z,2.22
2023-07-18T13:08:14.012Z,3.03
2023-07-18T13:13:19.544Z,2.75
2023-07-18T13:18:24.672Z,2.30
2023-07-18T13:23:29.086Z,2.70
2023-07-18T13:28:36.854Z,2.50
2023-07-18T13:33:44.803Z,2.38
2023-07-18T13:38:54.911Z,2.55
2023-07-18T13:44:04.592Z,2.40
2023-07-18T13:49:10.679Z,2.40
2023-07-18T13:54:17.350Z,2.67
2023-07-18T13:59:24.023Z,2.13
2023-07-18T14:04:29.534Z,2.42
2023-07-18T14:09:34.530Z,2.45
2023-07-18T14:14:41.822Z,2.35
2023-07-18T14:19:49.467Z,2.28
2023-07-18T14:24:56.779Z,2.70
2023-07-18T14:30:04.017Z,2.53
2023-07-18T14:35:10.916Z,2.35
2023-07-18T14:40:15.678Z,2.45
2023-07-18T14:45:23.597Z,2.70
2023-07-18T14:50:29.233Z,2.30
2023-07-18T14:55:35.804Z,2.67
2023-07-18T15:00:46.627Z,2.08
2023-07-18T15:05:53.265Z,2.70
2023-07-18T15:11:00.644Z,2.30
2023-07-18T15:16:09.842Z,2.50
2023-07-18T15:21:17.214Z,2.55
2023-07-18T15:26:22.795Z,2.28
2023-07-18T15:36:33.693Z,2.63
2023-07-18T15:41:39.751Z,2.90
2023-07-18T15:46:46.279Z,2.70
2023-07-18T15:51:53.074Z,2.67
2023-07-18T15:56:58.171Z,2.40
2023-07-18T16:02:05.602Z,2.40
2023-07-18T16:07:11.046Z,2.70
2023-07-18T16:12:17.307Z,2.53
2023-07-18T16:17:26.373Z,3.10
2023-07-18T16:22:33.757Z,3.00
2023-07-18T16:27:38.855Z,2.60
2023-07-18T16:32:46.394Z,2.70
2023-07-18T16:37:53.182Z,3.03
2023-07-18T16:42:58.667Z,3.40
2023-07-18T16:48:06.378Z,2.57
2023-07-18T16:53:10.794Z,2.33
2023-07-18T16:58:17.524Z,2.50
2023-07-18T17:03:24.992Z,2.70
2023-07-18T17:08:31.110Z,2.70
2023-07-18T17:13:37.745Z,2.50
2023-07-18T17:18:45.973Z,2.60
2023-07-18T17:23:52.063Z,2.92
2023-07-18T17:28:59.094Z,2.55
2023-07-18T17:34:07.317Z,2.63
2023-07-18T17:39:14.047Z,2.80
2023-07-18T17:44:21.348Z,2.58
2023-07-18T17:49:29.174Z,2.40
2023-07-18T17:54:33.541Z,2.70
2023-07-18T17:59:37.867Z,3.22
2023-07-18T18:04:43.447Z,3.47
2023-07-18T18:09:47.517Z,2.95
2023-07-18T18:14:55.546Z,2.80
2023-07-18T18:20:01.230Z,3.25
2023-07-18T18:25:05.484Z,3.70
2023-07-18T18:30:10.177Z,3.90
2023-07-18T18:35:15.390Z,4.25
2023-07-18T18:45:24.841Z,4.30
2023-07-18T18:50:31.908Z,5.97
2023-07-18T18:55:36.721Z,4.88
2023-07-18T19:00:42.976Z,4.50
2023-07-18T19:05:50.349Z,4.50
2023-07-18T19:11:06.586Z,4.45
2023-07-18T19:16:24.821Z,4.85
2023-07-18T19:21:38.617Z,6.67
2023-07-18T19:26:44.771Z,7.18
2023-07-18T19:31:50.546Z,6.38
2023-07-18T19:36:56.631Z,6.68
2023-07-18T19:42:00.512Z,6.20
2023-07-18T19:47:04.605Z,6.95
2023-07-18T19:52:10.070Z,8.55
2023-07-18T19:57:14.648Z,9.07
2023-07-18T20:02:18.874Z,6.70
2023-07-18T20:07:26.340Z,7.20
2023-07-18T20:12:31.289Z,8.68
2023-07-18T20:17:36.837Z,7.53
2023-07-18T20:22:45.451Z,8.85
2023-07-18T20:27:49.963Z,7.78
2023-07-18T20:32:53.830Z,7.30
2023-07-18T20:38:01.938Z,7.45
2023-07-18T20:43:08.839Z,8.30
2023-07-18T20:48:13.840Z,7.50
2023-07-18T20:53:20.433Z,7.75
2023-07-18T20:58:26.475Z,6.90
2023-07-18T21:03:32.943Z,6.70
2023-07-18T21:08:39.393Z,6.70
2023-07-18T21:13:46.706Z,7.35
2023-07-18T21:18:53.653Z,6.38
2023-07-18T21:24:02.600Z,6.82
2023-07-18T21:29:09.024Z,7.05
2023-07-18T21:34:16.224Z,6.75
2023-07-18T21:39:24.834Z,6.85
2023-07-18T21:44:32.285Z,6.80
2023-07-18T21:49:37.196Z,6.63
2023-07-18T21:54:42.730Z,6.00
2023-07-18T22:04:54.049Z,6.03
2023-07-18T22:10:00.640Z,6.03
2023-07-18T22:15:06.307Z,7.10
2023-07-18T22:20:12.709Z,7.35
2023-07-18T22:25:19.748Z,8.27
2023-07-18T22:30:26.276Z,7.65
2023-07-18T22:35:31.885Z,7.43
2023-07-18T22:40:38.849Z,6.70
2023-07-18T22:45:44.329Z,6.60
2023-07-18T22:50:52.438Z,6.32
2023-07-18T22:56:01.234Z,6.05
2023-07-18T23:01:06.438Z,6.20
2023-07-18T23:06:10.440Z,5.63
2023-07-18T23:11:15.622Z,5.93
2023-07-18T23:16:19.706Z,5.63
2023-07-18T23:21:26.471Z,5.57
2023-07-18T23:26:36.179Z,5.20
2023-07-18T23:31:43.200Z,5.63
2023-07-18T23:36:50.341Z,5.70
2023-07-18T23:41:59.786Z,6.43
2023-07-18T23:47:07.036Z,6.40
2023-07-18T23:52:12.277Z,6.32
